Time;durP1;ratioP1;P1;durP2;ratioP2;P2;SDS_P1;SDS_P2;PMS_P1;PMS_P2;Temp;Humidity;BMP_temperature;BMP_pressure;BME280_temperature;BME280_humidity;BME280_pressure;Samples;Min_cycle;Max_cycle;Signal;HPM_P1;HPM_P2
2023/08/27 00:01:11;;;;;;;899.53;814.63;;;;;;;;;;6337462;22;20017;-61
2023/08/27 00:03:37;;;;;;;904.13;818.88;;;;;;;;;;6337772;22;20022;-62
2023/08/27 00:06:04;;;;;;;896.63;810.53;;;;;;;;;;6337272;22;20027;-61
2023/08/27 00:08:31;;;;;;;905.47;819.53;;;;;;;;;;6337255;22;20022;-60
2023/08/27 00:10:58;;;;;;;892.47;808.17;;;;;;;;;;6337202;22;20006;-61
2023/08/27 00:13:25;;;;;;;890.28;804.17;;;;;;;;;;6309460;22;20499;-61
2023/08/27 00:15:51;;;;;;;897.22;807.65;;;;;;;;;;6309677;22;20019;-61
2023/08/27 00:18:18;;;;;;;878.40;794.38;;;;;;;;;;6337340;22;20026;-62
2023/08/27 00:20:48;;;;;;;892.70;807.83;;;;;;;;;;6337179;22;20053;-61
2023/08/27 00:23:15;;;;;;;898.30;811.17;;;;;;;;;;6309103;22;20023;-62
2023/08/27 00:25:44;;;;;;;876.47;792.03;;;;;;;;;;6309467;22;20106;-61
2023/08/27 00:28:12;;;;;;;889.15;804.13;;;;;;;;;;6336965;22;20030;-62
2023/08/27 00:30:39;;;;;;;871.30;788.90;;;;;;;;;;6337711;22;20015;-62
2023/08/27 00:33:06;;;;;;;877.55;793.00;;;;;;;;;;6336883;22;20019;-62
2023/08/27 00:35:33;;;;;;;878.97;793.58;;;;;;;;;;6337117;22;20030;-61
2023/08/27 00:38:00;;;;;;;879.85;795.95;;;;;;;;;;6283745;22;20090;-60
2023/08/27 00:40:31;;;;;;;880.90;795.50;;;;;;;;;;6309391;22;20112;-61
2023/08/27 00:42:58;;;;;;;878.97;790.60;;;;;;;;;;6309621;22;20015;-62
2023/08/27 00:46:06;;;;;;;898.08;810.72;;;;;;;;;;6308395;22;20026;-62
2023/08/27 00:48:33;;;;;;;883.45;797.22;;;;;;;;;;6276768;22;20023;-62
2023/08/27 00:51:01;;;;;;;886.50;801.70;;;;;;;;;;6304006;22;20086;-61
2023/08/27 00:53:27;;;;;;;888.83;804.13;;;;;;;;;;6303606;22;20019;-61
2023/08/27 00:55:54;;;;;;;884.22;795.90;;;;;;;;;;6304992;22;20015;-61
2023/08/27 00:58:21;;;;;;;890.65;806.08;;;;;;;;;;6279823;22;20041;-61
2023/08/27 01:00:48;;;;;;;881.75;796.58;;;;;;;;;;6305581;22;20467;-61
2023/08/27 01:03:15;;;;;;;892.47;804.50;;;;;;;;;;6305616;22;20459;-63
2023/08/27 01:05:41;;;;;;;873.33;789.15;;;;;;;;;;6305293;22;20034;-61
2023/08/27 01:08:14;;;;;;;873.95;789.40;;;;;;;;;;6307104;22;20015;-63
2023/08/27 01:10:53;;;;;;;876.93;790.13;;;;;;;;;;6307410;22;20019;-62
2023/08/27 01:13:25;;;;;;;868.17;784.35;;;;;;;;;;6307242;22;20696;-61
2023/08/27 01:15:56;;;;;;;875.22;790.92;;;;;;;;;;6279923;22;20068;-61
2023/08/27 01:18:23;;;;;;;875.80;789.63;;;;;;;;;;6279707;22;20441;-61
2023/08/27 01:20:50;;;;;;;865.97;781.65;;;;;;;;;;6307092;22;20011;-60
2023/08/27 01:23:17;;;;;;;877.58;792.92;;;;;;;;;;6306746;22;20019;-61
2023/08/27 01:25:45;;;;;;;887.83;801.42;;;;;;;;;;6279715;22;20093;-62
2023/08/27 01:28:32;;;;;;;870.83;786.75;;;;;;;;;;6280123;22;20340;-60
2023/08/27 01:31:01;;;;;;;868.05;784.35;;;;;;;;;;6254188;22;20023;-63
2023/08/27 01:33:28;;;;;;;875.58;789.95;;;;;;;;;;6279583;22;20345;-62
2023/08/27 01:35:57;;;;;;;894.80;801.50;;;;;;;;;;6304824;22;20260;-60
2023/08/27 01:38:23;;;;;;;868.50;785.13;;;;;;;;;;6253167;22;20601;-62
2023/08/27 01:40:50;;;;;;;875.25;788.08;;;;;;;;;;6306610;22;20022;-62
2023/08/27 01:43:17;;;;;;;878.38;793.25;;;;;;;;;;6307007;22;20019;-62
2023/08/27 01:45:43;;;;;;;874.25;790.97;;;;;;;;;;6279483;22;20019;-61
2023/08/27 01:48:10;;;;;;;881.60;796.03;;;;;;;;;;6305045;22;20337;-61
2023/08/27 01:50:37;;;;;;;876.35;791.70;;;;;;;;;;6305417;22;20023;-62
2023/08/27 01:53:03;;;;;;;882.17;796.88;;;;;;;;;;6305046;22;20020;-61
2023/08/27 01:55:30;;;;;;;884.20;799.90;;;;;;;;;;6305150;22;20026;-61
2023/08/27 01:57:58;;;;;;;882.88;798.25;;;;;;;;;;6304940;22;20019;-62
2023/08/27 02:03:44;;;;;;;868.78;782.97;;;;;;;;;;6300887;22;20100;-63
2023/08/27 02:06:11;;;;;;;876.30;793.45;;;;;;;;;;6307461;22;20508;-61
2023/08/27 02:08:38;;;;;;;878.67;791.72;;;;;;;;;;6280062;22;20049;-62
2023/08/27 02:11:06;;;;;;;873.42;787.97;;;;;;;;;;6279920;22;20019;-62
2023/08/27 02:13:33;;;;;;;883.63;799.17;;;;;;;;;;6280734;22;20110;-61
2023/08/27 02:16:00;;;;;;;872.22;788.28;;;;;;;;;;6307550;22;20026;-62
2023/08/27 02:18:26;;;;;;;880.88;795.20;;;;;;;;;;6280148;22;20065;-61
2023/08/27 02:20:56;;;;;;;876.22;790.50;;;;;;;;;;6280342;22;20023;-61
2023/08/27 02:23:23;;;;;;;874.33;788.40;;;;;;;;;;6308315;22;20015;-61
2023/08/27 02:25:50;;;;;;;884.85;793.42;;;;;;;;;;6280584;22;20441;-63
2023/08/27 02:28:16;;;;;;;873.80;790.25;;;;;;;;;;6308195;22;20065;-61
2023/08/27 02:31:09;;;;;;;885.85;799.13;;;;;;;;;;6279848;22;20027;-60
2023/08/27 02:33:36;;;;;;;871.97;786.60;;;;;;;;;;6300553;22;20081;-61
2023/08/27 02:36:03;;;;;;;866.83;783.60;;;;;;;;;;6280697;22;20027;-62
2023/08/27 02:38:30;;;;;;;870.35;785.88;;;;;;;;;;6280111;22;20023;-63
2023/08/27 02:40:58;;;;;;;875.53;788.45;;;;;;;;;;6280532;22;20023;-62
2023/08/27 02:43:25;;;;;;;873.83;790.13;;;;;;;;;;6308469;22;20015;-61
2023/08/27 02:45:52;;;;;;;867.25;783.00;;;;;;;;;;6307510;22;20015;-62
2023/08/27 02:48:18;;;;;;;881.78;797.30;;;;;;;;;;6307968;22;20016;-62
2023/08/27 02:50:45;;;;;;;878.65;792.58;;;;;;;;;;6280267;22;20455;-61
2023/08/27 02:53:11;;;;;;;875.35;789.33;;;;;;;;;;6280479;22;20019;-61
2023/08/27 02:55:38;;;;;;;877.15;792.50;;;;;;;;;;6280134;22;20463;-62
2023/08/27 02:58:05;;;;;;;876.80;792.88;;;;;;;;;;6307775;22;20028;-62
2023/08/27 03:00:32;;;;;;;877.75;790.97;;;;;;;;;;6307733;22;20014;-61
2023/08/27 03:02:59;;;;;;;876.60;790.83;;;;;;;;;;6280026;22;20015;-62
2023/08/27 03:05:26;;;;;;;872.83;788.10;;;;;;;;;;6280343;22;20023;-62
2023/08/27 03:07:52;;;;;;;874.33;784.83;;;;;;;;;;6279754;22;20020;-65
2023/08/27 03:10:22;;;;;;;880.53;795.95;;;;;;;;;;6307649;22;20068;-61
2023/08/27 03:12:49;;;;;;;878.00;793.83;;;;;;;;;;6254672;22;20023;-62
2023/08/27 03:15:16;;;;;;;878.47;792.55;;;;;;;;;;6279942;22;20045;-60
2023/08/27 03:17:42;;;;;;;883.20;798.33;;;;;;;;;;6279978;22;20019;-61
2023/08/27 03:20:09;;;;;;;874.10;789.55;;;;;;;;;;6279722;22;20333;-63
2023/08/27 03:22:36;;;;;;;873.17;788.03;;;;;;;;;;6280319;22;20457;-62
2023/08/27 03:25:03;;;;;;;873.40;788.88;;;;;;;;;;6280185;22;20007;-61
2023/08/27 03:27:32;;;;;;;879.83;794.88;;;;;;;;;;6281836;22;20068;-63
2023/08/27 03:29:59;;;;;;;878.78;792.92;;;;;;;;;;6281588;22;20023;-62
2023/08/27 03:32:26;;;;;;;874.85;789.08;;;;;;;;;;6281571;22;20015;-61
2023/08/27 03:34:53;;;;;;;874.80;785.30;;;;;;;;;;6309344;22;20046;-63
2023/08/27 03:37:19;;;;;;;881.42;796.60;;;;;;;;;;6311149;22;20011;-61
2023/08/27 03:39:46;;;;;;;872.53;786.60;;;;;;;;;;6282249;22;20019;-62
2023/08/27 03:42:12;;;;;;;876.50;793.45;;;;;;;;;;6310492;22;20031;-63
2023/08/27 03:44:40;;;;;;;883.03;797.72;;;;;;;;;;6283396;22;20019;-62
2023/08/27 03:47:06;;;;;;;867.05;783.67;;;;;;;;;;6286173;22;20016;-62
2023/08/27 03:49:35;;;;;;;875.97;791.85;;;;;;;;;;6286024;22;20023;-62
2023/08/27 03:52:02;;;;;;;878.60;793.92;;;;;;;;;;6313548;22;20031;-62
2023/08/27 03:54:30;;;;;;;870.35;786.05;;;;;;;;;;6282449;22;20026;-61
2023/08/27 03:56:56;;;;;;;883.65;798.47;;;;;;;;;;6312345;22;20022;-61
2023/08/27 03:59:23;;;;;;;876.15;790.58;;;;;;;;;;6286376;22;20340;-62
2023/08/27 04:01:51;;;;;;;882.58;793.55;;;;;;;;;;6285718;22;20023;-64
2023/08/27 04:04:17;;;;;;;871.78;788.40;;;;;;;;;;6285030;22;20023;-62
2023/08/27 04:06:44;;;;;;;888.22;802.97;;;;;;;;;;6281996;22;20097;-62
2023/08/27 04:09:10;;;;;;;885.17;798.72;;;;;;;;;;6285477;22;20034;-61
2023/08/27 04:11:37;;;;;;;876.15;792.53;;;;;;;;;;6285646;22;20022;-63
2023/08/27 04:14:04;;;;;;;877.85;792.50;;;;;;;;;;6285463;22;20019;-61
2023/08/27 04:16:30;;;;;;;878.88;793.47;;;;;;;;;;6282887;22;20445;-63
2023/08/27 04:18:57;;;;;;;879.22;795.13;;;;;;;;;;6284349;22;20065;-61
2023/08/27 04:21:24;;;;;;;880.38;796.88;;;;;;;;;;6284963;22;20023;-61
2023/08/27 04:23:51;;;;;;;892.95;805.75;;;;;;;;;;6311596;22;20038;-61
2023/08/27 04:26:18;;;;;;;898.92;813.38;;;;;;;;;;6312364;22;20049;-61
2023/08/27 04:28:45;;;;;;;898.08;808.58;;;;;;;;;;6282066;22;20020;-61
2023/08/27 04:31:15;;;;;;;897.38;810.60;;;;;;;;;;6284383;22;20023;-61
2023/08/27 04:33:42;;;;;;;897.67;811.33;;;;;;;;;;6311534;22;20041;-63
2023/08/27 04:36:09;;;;;;;905.05;819.45;;;;;;;;;;6311524;22;20007;-61
2023/08/27 04:38:35;;;;;;;903.70;816.10;;;;;;;;;;6281741;22;20030;-63
2023/08/27 04:41:02;;;;;;;908.60;818.85;;;;;;;;;;6311128;22;20024;-62
2023/08/27 04:43:28;;;;;;;909.92;824.35;;;;;;;;;;6311684;22;20027;-61
2023/08/27 04:45:55;;;;;;;912.42;825.58;;;;;;;;;;6283226;22;20019;-61
2023/08/27 04:48:22;;;;;;;914.33;827.72;;;;;;;;;;6281860;22;20069;-61
2023/08/27 04:50:48;;;;;;;914.03;826.13;;;;;;;;;;6282083;22;20019;-62
2023/08/27 04:53:15;;;;;;;923.72;834.55;;;;;;;;;;6310082;22;20019;-61
2023/08/27 04:55:42;;;;;;;932.15;844.13;;;;;;;;;;6282990;22;20019;-62
2023/08/27 04:58:09;;;;;;;936.35;849.33;;;;;;;;;;6309975;22;20053;-62
2023/08/27 05:00:37;;;;;;;939.63;850.05;;;;;;;;;;6308232;22;20374;-62
2023/08/27 05:03:03;;;;;;;939.72;852.47;;;;;;;;;;6282319;22;20023;-62
2023/08/27 05:05:30;;;;;;;942.30;854.33;;;;;;;;;;6281856;22;20023;-61
2023/08/27 05:07:58;;;;;;;947.65;851.50;;;;;;;;;;6281623;22;20025;-62
2023/08/27 05:10:26;;;;;;;952.92;863.35;;;;;;;;;;6280722;22;20081;-61
2023/08/27 05:12:53;;;;;;;956.03;868.92;;;;;;;;;;6281546;22;20034;-61
2023/08/27 05:15:20;;;;;;;959.50;870.45;;;;;;;;;;6281352;22;20015;-62
2023/08/27 05:17:48;;;;;;;962.13;871.53;;;;;;;;;;6280716;22;20428;-61
2023/08/27 05:20:15;;;;;;;958.95;869.75;;;;;;;;;;6279209;22;20027;-61
2023/08/27 05:22:42;;;;;;;959.47;869.40;;;;;;;;;;6279666;22;20019;-62
2023/08/27 05:25:09;;;;;;;958.97;869.03;;;;;;;;;;6306742;22;20022;-62
2023/08/27 05:27:43;;;;;;;956.55;866.78;;;;;;;;;;6279109;22;20030;-62
2023/08/27 05:30:12;;;;;;;950.72;863.28;;;;;;;;;;6305564;22;20015;-62
2023/08/27 05:32:39;;;;;;;950.38;860.55;;;;;;;;;;6278122;22;20337;-62
2023/08/27 05:35:08;;;;;;;946.30;855.85;;;;;;;;;;6279422;22;20026;-62
2023/08/27 05:37:35;;;;;;;951.67;863.10;;;;;;;;;;6306347;22;20377;-62
2023/08/27 05:40:03;;;;;;;951.38;863.35;;;;;;;;;;6279315;22;20011;-62
2023/08/27 05:42:29;;;;;;;942.70;853.80;;;;;;;;;;6279056;22;20440;-62
2023/08/27 05:44:56;;;;;;;946.00;856.20;;;;;;;;;;6308132;22;20016;-61
2023/08/27 05:47:23;;;;;;;951.70;860.97;;;;;;;;;;6307449;22;20333;-61
2023/08/27 05:49:49;;;;;;;948.53;854.97;;;;;;;;;;6279958;22;20023;-63
2023/08/27 05:52:16;;;;;;;959.72;870.70;;;;;;;;;;6281223;22;20023;-61
2023/08/27 05:54:42;;;;;;;955.92;866.60;;;;;;;;;;6280425;22;20118;-61
2023/08/27 05:57:09;;;;;;;948.95;860.22;;;;;;;;;;6280648;22;20020;-61
2023/08/27 05:59:36;;;;;;;959.67;871.22;;;;;;;;;;6280535;22;20081;-63
2023/08/27 06:02:03;;;;;;;966.88;875.10;;;;;;;;;;6308833;22;20114;-61
2023/08/27 06:04:30;;;;;;;964.92;874.00;;;;;;;;;;6281323;22;20073;-61
2023/08/27 06:06:57;;;;;;;970.13;880.35;;;;;;;;;;6255240;22;20021;-61
2023/08/27 06:09:24;;;;;;;973.35;884.67;;;;;;;;;;6280361;22;20094;-62
2023/08/27 06:11:50;;;;;;;972.33;880.67;;;;;;;;;;6307564;22;20019;-62
2023/08/27 06:14:17;;;;;;;989.85;896.03;;;;;;;;;;6307884;22;20011;-62
2023/08/27 06:16:46;;;;;;;1001.20;906.72;;;;;;;;;;6308207;22;20019;-62
2023/08/27 06:19:12;;;;;;;994.03;901.15;;;;;;;;;;6307918;22;20022;-62
2023/08/27 06:21:39;;;;;;;1013.45;921.60;;;;;;;;;;6307011;22;20572;-63
2023/08/27 06:24:06;;;;;;;1016.17;921.53;;;;;;;;;;6308139;22;20069;-63
2023/08/27 06:26:32;;;;;;;1026.35;930.15;;;;;;;;;;6307637;22;20479;-63
2023/08/27 06:29:01;;;;;;;1026.75;927.05;;;;;;;;;;6280859;22;20022;-63
2023/08/27 06:31:28;;;;;;;1036.07;942.55;;;;;;;;;;6281406;22;20022;-60
2023/08/27 06:33:56;;;;;;;1050.72;954.65;;;;;;;;;;6254834;22;20047;-61
2023/08/27 06:36:23;;;;;;;1046.20;950.47;;;;;;;;;;6280246;22;20445;-62
2023/08/27 06:38:50;;;;;;;1057.88;962.15;;;;;;;;;;6280409;22;20387;-62
2023/08/27 06:41:16;;;;;;;1069.47;971.65;;;;;;;;;;6280113;22;20026;-62
2023/08/27 06:43:46;;;;;;;1089.93;989.22;;;;;;;;;;6255622;22;20038;-62
2023/08/27 06:46:19;;;;;;;1099.30;999.00;;;;;;;;;;6280789;22;20020;-62
2023/08/27 06:48:46;;;;;;;1114.28;999.90;;;;;;;;;;6279779;22;20280;-62
2023/08/27 06:51:12;;;;;;;1118.78;999.90;;;;;;;;;;6280057;22;20011;-62
2023/08/27 06:53:40;;;;;;;1138.82;999.90;;;;;;;;;;6279881;22;20102;-64
2023/08/27 06:56:07;;;;;;;1146.60;999.90;;;;;;;;;;6279705;22;20069;-62
2023/08/27 06:58:33;;;;;;;1148.55;999.90;;;;;;;;;;6279530;22;20015;-64
2023/08/27 07:01:04;;;;;;;1150.97;999.90;;;;;;;;;;6279209;22;20019;-64
2023/08/27 07:03:31;;;;;;;1155.93;999.90;;;;;;;;;;6278749;22;20422;-63
2023/08/27 07:05:58;;;;;;;1151.13;999.90;;;;;;;;;;6279561;22;20641;-63
2023/08/27 07:08:25;;;;;;;1161.53;999.90;;;;;;;;;;6307028;22;20498;-63
2023/08/27 07:10:51;;;;;;;1164.68;999.90;;;;;;;;;;6306524;22;20035;-64
2023/08/27 07:13:18;;;;;;;1159.30;999.90;;;;;;;;;;6307201;22;20326;-64
2023/08/27 07:15:45;;;;;;;1161.82;999.90;;;;;;;;;;6279486;22;20019;-62
2023/08/27 07:18:13;;;;;;;1169.80;999.90;;;;;;;;;;6279336;22;20029;-63
2023/08/27 07:20:41;;;;;;;1174.78;999.90;;;;;;;;;;6279022;22;20015;-63
2023/08/27 07:23:07;;;;;;;1175.65;999.90;;;;;;;;;;6279460;22;20216;-63
2023/08/27 07:25:34;;;;;;;1186.88;999.90;;;;;;;;;;6279213;22;20081;-64
2023/08/27 07:28:01;;;;;;;1188.55;999.90;;;;;;;;;;6253620;22;20046;-64
2023/08/27 07:30:28;;;;;;;1184.63;999.90;;;;;;;;;;6279129;22;20363;-64
2023/08/27 07:32:54;;;;;;;1188.18;999.90;;;;;;;;;;6306161;22;20084;-64
2023/08/27 07:35:21;;;;;;;1186.43;999.90;;;;;;;;;;6306645;22;20766;-64
2023/08/27 07:37:49;;;;;;;1189.47;999.90;;;;;;;;;;6278752;22;20094;-64
2023/08/27 07:40:17;;;;;;;1193.38;999.90;;;;;;;;;;6279525;22;20433;-64
2023/08/27 07:42:47;;;;;;;1193.53;999.90;;;;;;;;;;6278811;22;20015;-63
2023/08/27 07:45:14;;;;;;;1185.30;999.90;;;;;;;;;;6279130;22;20081;-64
2023/08/27 07:47:41;;;;;;;1180.22;999.90;;;;;;;;;;6305877;22;20015;-64
2023/08/27 07:50:08;;;;;;;1172.53;999.90;;;;;;;;;;6278869;22;20038;-64
2023/08/27 07:52:35;;;;;;;1167.13;999.90;;;;;;;;;;6279527;22;20015;-63
2023/08/27 07:55:03;;;;;;;1156.75;999.90;;;;;;;;;;6278759;22;20081;-63
2023/08/27 07:57:30;;;;;;;1152.65;999.90;;;;;;;;;;6306478;22;20037;-63
2023/08/27 07:59:58;;;;;;;1138.38;999.90;;;;;;;;;;6278895;22;20437;-63
2023/08/27 08:02:24;;;;;;;1130.00;999.90;;;;;;;;;;6278599;22;20015;-63
2023/08/27 08:04:51;;;;;;;1142.30;999.90;;;;;;;;;;6279059;22;20106;-64
2023/08/27 08:07:18;;;;;;;1121.07;999.90;;;;;;;;;;6306183;22;20026;-64
2023/08/27 08:09:44;;;;;;;1122.53;999.90;;;;;;;;;;6305824;22;20504;-64
2023/08/27 08:12:11;;;;;;;1114.88;999.90;;;;;;;;;;6278866;22;20068;-64
2023/08/27 08:14:38;;;;;;;1124.15;999.90;;;;;;;;;;6306474;22;20090;-64
2023/08/27 08:17:04;;;;;;;1117.10;999.90;;;;;;;;;;6278509;22;20045;-64
2023/08/27 08:19:32;;;;;;;1121.38;999.90;;;;;;;;;;6306246;22;20502;-63
2023/08/27 08:21:59;;;;;;;1111.95;999.90;;;;;;;;;;6306228;22;20038;-63
2023/08/27 08:24:25;;;;;;;1105.65;999.90;;;;;;;;;;6306322;22;20016;-64
2023/08/27 08:26:52;;;;;;;1102.53;999.50;;;;;;;;;;6306606;22;20026;-63
2023/08/27 08:29:20;;;;;;;1107.72;999.90;;;;;;;;;;6306101;22;20090;-64
2023/08/27 08:31:47;;;;;;;1113.85;999.90;;;;;;;;;;6306159;22;20023;-64
2023/08/27 08:34:14;;;;;;;1102.30;999.90;;;;;;;;;;6306536;22;20061;-64
2023/08/27 08:36:41;;;;;;;1106.00;999.90;;;;;;;;;;6306236;22;20502;-64
2023/08/27 08:39:07;;;;;;;1104.22;999.67;;;;;;;;;;6305182;22;20060;-64
2023/08/27 08:41:36;;;;;;;1111.90;999.90;;;;;;;;;;6278538;22;20065;-63
2023/08/27 08:44:07;;;;;;;1113.28;999.90;;;;;;;;;;6305972;22;20019;-63
2023/08/27 08:46:35;;;;;;;1114.43;999.90;;;;;;;;;;6306586;22;20008;-63
2023/08/27 08:49:02;;;;;;;1113.38;999.90;;;;;;;;;;6278968;22;20076;-64
2023/08/27 08:51:30;;;;;;;1106.63;999.90;;;;;;;;;;6306241;22;20016;-63
2023/08/27 08:53:59;;;;;;;1110.88;999.90;;;;;;;;;;6278506;22;20019;-64
2023/08/27 08:56:31;;;;;;;1110.25;999.90;;;;;;;;;;6305767;22;20022;-63
2023/08/27 08:58:58;;;;;;;1122.03;999.90;;;;;;;;;;6278328;22;20015;-64
2023/08/27 09:01:25;;;;;;;1120.97;999.90;;;;;;;;;;6279041;22;20082;-64
2023/08/27 09:03:52;;;;;;;1124.10;999.90;;;;;;;;;;6278622;22;20097;-64
2023/08/27 09:06:18;;;;;;;1122.47;999.90;;;;;;;;;;6306238;22;20011;-64
2023/08/27 09:08:46;;;;;;;1125.15;999.90;;;;;;;;;;6278450;22;20015;-64
2023/08/27 09:11:13;;;;;;;1128.15;999.90;;;;;;;;;;6278380;22;20039;-64
2023/08/27 09:13:40;;;;;;;1132.78;999.90;;;;;;;;;;6306228;22;20019;-63
2023/08/27 09:16:07;;;;;;;1130.57;999.90;;;;;;;;;;6278934;22;20045;-63
2023/08/27 09:18:34;;;;;;;1142.28;999.90;;;;;;;;;;6307031;22;20098;-63
2023/08/27 09:21:01;;;;;;;1148.75;999.90;;;;;;;;;;6307878;22;20019;-63
2023/08/27 09:23:28;;;;;;;1136.50;999.90;;;;;;;;;;6308417;22;20023;-63
2023/08/27 09:26:04;;;;;;;1143.63;999.90;;;;;;;;;;6307992;22;20023;-63
2023/08/27 09:28:33;;;;;;;1131.68;999.90;;;;;;;;;;6308310;22;20023;-64
2023/08/27 09:31:01;;;;;;;1129.88;999.90;;;;;;;;;;6307833;22;20022;-63
2023/08/27 09:33:41;;;;;;;1121.32;999.90;;;;;;;;;;6307858;22;20049;-64
2023/08/27 09:36:08;;;;;;;1117.15;999.90;;;;;;;;;;6307895;22;20126;-63
2023/08/27 09:38:35;;;;;;;1123.47;999.90;;;;;;;;;;6307653;22;20038;-63
2023/08/27 09:41:15;;;;;;;1127.80;999.90;;;;;;;;;;6280518;22;20160;-63
2023/08/27 09:43:52;;;;;;;1120.90;999.90;;;;;;;;;;6308327;22;20016;-63
2023/08/27 09:46:20;;;;;;;1124.55;999.90;;;;;;;;;;6307697;22;20019;-63
2023/08/27 09:48:56;;;;;;;1125.72;999.90;;;;;;;;;;6307446;22;20034;-63
2023/08/27 09:51:23;;;;;;;1122.45;999.90;;;;;;;;;;6307706;22;20016;-63
2023/08/27 09:53:50;;;;;;;1126.18;999.90;;;;;;;;;;6307495;22;20011;-63
2023/08/27 09:56:17;;;;;;;1124.28;999.90;;;;;;;;;;6307419;22;20045;-63
2023/08/27 09:58:43;;;;;;;1133.70;999.90;;;;;;;;;;6307534;22;20015;-64
2023/08/27 10:01:10;;;;;;;1136.00;999.90;;;;;;;;;;6280481;22;20022;-63
2023/08/27 10:03:37;;;;;;;1140.20;999.90;;;;;;;;;;6307211;22;20333;-63
2023/08/27 10:06:04;;;;;;;1151.45;999.90;;;;;;;;;;6307005;22;20011;-63
2023/08/27 10:08:31;;;;;;;1159.30;999.90;;;;;;;;;;6306941;22;20391;-63
2023/08/27 10:11:10;;;;;;;1168.32;999.90;;;;;;;;;;6307159;22;20038;-63
2023/08/27 10:13:39;;;;;;;1165.30;999.90;;;;;;;;;;6307909;22;20015;-63
2023/08/27 10:16:05;;;;;;;1164.82;999.90;;;;;;;;;;6307071;22;20039;-63
2023/08/27 10:18:32;;;;;;;1163.20;999.90;;;;;;;;;;6280486;22;20078;-63
2023/08/27 10:21:00;;;;;;;1170.53;999.90;;;;;;;;;;6307012;22;20429;-63
2023/08/27 10:23:29;;;;;;;1162.50;999.90;;;;;;;;;;6307276;22;20015;-63
2023/08/27 10:25:57;;;;;;;1168.38;999.90;;;;;;;;;;6307539;22;20017;-63
2023/08/27 10:28:25;;;;;;;1152.07;999.90;;;;;;;;;;6307158;22;20012;-63
2023/08/27 10:30:53;;;;;;;1154.07;999.90;;;;;;;;;;6307056;22;20102;-63
2023/08/27 10:33:19;;;;;;;1144.38;999.90;;;;;;;;;;6306826;22;20022;-63
2023/08/27 10:35:47;;;;;;;1148.13;999.90;;;;;;;;;;6306853;22;20378;-63
2023/08/27 10:38:15;;;;;;;1156.80;999.90;;;;;;;;;;6307375;22;20445;-62
2023/08/27 10:40:43;;;;;;;1147.50;999.90;;;;;;;;;;6280265;22;20043;-63
2023/08/27 10:43:17;;;;;;;1140.72;999.90;;;;;;;;;;6280118;22;20057;-63
2023/08/27 10:45:44;;;;;;;1137.13;999.90;;;;;;;;;;6307369;22;20022;-63
2023/08/27 10:48:34;;;;;;;1138.32;999.90;;;;;;;;;;6306678;22;20042;-62
2023/08/27 10:51:13;;;;;;;1140.38;999.90;;;;;;;;;;6306881;22;20023;-63
2023/08/27 10:53:48;;;;;;;1141.93;999.90;;;;;;;;;;6307046;22;20043;-63
2023/08/27 10:56:26;;;;;;;1144.97;999.90;;;;;;;;;;6306752;22;20449;-63
2023/08/27 10:58:56;;;;;;;1140.82;999.90;;;;;;;;;;6307128;22;20015;-63
2023/08/27 11:01:22;;;;;;;1136.43;999.90;;;;;;;;;;6306852;22;20090;-63
2023/08/27 11:03:50;;;;;;;1135.88;999.90;;;;;;;;;;6307069;22;20019;-63
2023/08/27 11:06:16;;;;;;;1135.60;999.90;;;;;;;;;;6306703;22;20015;-63
2023/08/27 11:08:43;;;;;;;1132.45;999.90;;;;;;;;;;6307126;22;20081;-62
2023/08/27 11:11:13;;;;;;;1137.82;999.90;;;;;;;;;;6279966;22;20500;-62
2023/08/27 11:13:45;;;;;;;1131.90;999.90;;;;;;;;;;6307557;22;20019;-63
2023/08/27 11:16:14;;;;;;;1124.38;999.90;;;;;;;;;;6307184;22;20026;-62
2023/08/27 11:18:45;;;;;;;1122.43;999.90;;;;;;;;;;6305829;22;20025;-63
2023/08/27 11:21:31;;;;;;;1124.68;999.90;;;;;;;;;;6306446;22;20018;-63
2023/08/27 11:24:10;;;;;;;1122.72;999.90;;;;;;;;;;6304646;22;20056;-62
2023/08/27 11:26:37;;;;;;;1116.78;999.90;;;;;;;;;;6306299;22;20038;-63
2023/08/27 11:29:03;;;;;;;1145.45;999.90;;;;;;;;;;6306710;22;20015;-63
2023/08/27 11:31:31;;;;;;;1125.72;999.90;;;;;;;;;;6306892;22;20488;-62
2023/08/27 11:33:58;;;;;;;1130.70;999.90;;;;;;;;;;6306635;22;20013;-62
2023/08/27 11:36:24;;;;;;;1123.68;999.90;;;;;;;;;;6279747;22;20025;-63
2023/08/27 11:38:55;;;;;;;1134.00;999.90;;;;;;;;;;6306701;22;20007;-63
2023/08/27 11:41:21;;;;;;;1127.65;999.90;;;;;;;;;;6305779;22;20015;-63
2023/08/27 11:43:52;;;;;;;1131.95;999.90;;;;;;;;;;6306543;22;20016;-62
2023/08/27 11:46:22;;;;;;;1137.53;999.90;;;;;;;;;;6279779;22;20047;-63
2023/08/27 11:48:49;;;;;;;1128.78;999.90;;;;;;;;;;6306607;22;20023;-62
2023/08/27 11:51:16;;;;;;;1139.07;999.90;;;;;;;;;;6306631;22;20015;-62
2023/08/27 11:53:43;;;;;;;1125.07;999.90;;;;;;;;;;6306405;22;20023;-63
2023/08/27 11:56:11;;;;;;;1128.18;999.90;;;;;;;;;;6306586;22;20064;-63
2023/08/27 11:58:41;;;;;;;1129.75;999.90;;;;;;;;;;6279831;22;20023;-63
2023/08/27 12:01:10;;;;;;;1134.75;999.90;;;;;;;;;;6306313;22;20070;-62
2023/08/27 12:03:38;;;;;;;1128.28;999.90;;;;;;;;;;6306536;22;20018;-63
2023/08/27 12:06:04;;;;;;;1126.72;999.90;;;;;;;;;;6278975;22;20073;-63
2023/08/27 12:08:35;;;;;;;1135.82;999.90;;;;;;;;;;6306482;22;20011;-63
2023/08/27 12:11:02;;;;;;;1144.05;999.90;;;;;;;;;;6306503;22;20068;-63
2023/08/27 12:13:29;;;;;;;1137.00;999.90;;;;;;;;;;6306914;22;20020;-63
2023/08/27 12:15:56;;;;;;;1135.47;999.90;;;;;;;;;;6306493;22;20065;-63
2023/08/27 12:18:23;;;;;;;1142.68;999.90;;;;;;;;;;6305883;22;20022;-64
2023/08/27 12:20:49;;;;;;;1140.60;999.90;;;;;;;;;;6306577;22;20081;-64
2023/08/27 12:23:16;;;;;;;1140.88;999.90;;;;;;;;;;6306068;22;20018;-64
2023/08/27 12:25:50;;;;;;;1140.43;999.90;;;;;;;;;;6306697;22;20011;-63
2023/08/27 12:28:17;;;;;;;1136.45;999.90;;;;;;;;;;6306692;22;20042;-63
2023/08/27 12:30:50;;;;;;;1146.25;999.90;;;;;;;;;;6306170;22;20516;-64
2023/08/27 12:33:17;;;;;;;1136.68;999.90;;;;;;;;;;6305945;22;20035;-64
2023/08/27 12:35:45;;;;;;;1140.25;999.90;;;;;;;;;;6305660;22;20098;-63
2023/08/27 12:38:12;;;;;;;1147.25;999.90;;;;;;;;;;6278716;22;20396;-63
2023/08/27 12:40:39;;;;;;;1143.50;999.90;;;;;;;;;;6306428;22;20015;-63
2023/08/27 12:43:05;;;;;;;1147.57;999.90;;;;;;;;;;6305831;22;20007;-63
2023/08/27 12:45:32;;;;;;;1139.93;999.90;;;;;;;;;;6305847;22;20027;-63
2023/08/27 12:48:03;;;;;;;1142.28;999.90;;;;;;;;;;6305355;22;20395;-63
2023/08/27 12:50:30;;;;;;;1129.95;999.90;;;;;;;;;;6306153;22;20084;-63
2023/08/27 12:52:57;;;;;;;1147.25;999.90;;;;;;;;;;6307717;22;20011;-63
2023/08/27 12:55:23;;;;;;;1137.85;999.90;;;;;;;;;;6308631;22;20015;-63
2023/08/27 12:57:50;;;;;;;1133.75;999.90;;;;;;;;;;6255372;22;20031;-63
2023/08/27 13:00:16;;;;;;;1135.85;999.90;;;;;;;;;;6308278;22;20090;-63
2023/08/27 13:02:43;;;;;;;1132.82;999.90;;;;;;;;;;6308137;22;20015;-63
2023/08/27 13:05:10;;;;;;;1137.90;999.90;;;;;;;;;;6308178;22;20567;-63
2023/08/27 13:07:37;;;;;;;1129.63;999.90;;;;;;;;;;6308382;22;20015;-64
2023/08/27 13:10:05;;;;;;;1134.20;999.90;;;;;;;;;;6307902;22;20352;-63
2023/08/27 13:12:34;;;;;;;1133.85;999.90;;;;;;;;;;6308018;22;20043;-64
2023/08/27 13:15:03;;;;;;;1133.35;999.90;;;;;;;;;;6308461;22;20012;-63
2023/08/27 13:17:32;;;;;;;1127.18;999.90;;;;;;;;;;6308528;22;20022;-63
2023/08/27 13:20:00;;;;;;;1139.55;999.90;;;;;;;;;;6308103;22;20310;-63
2023/08/27 13:22:26;;;;;;;1131.85;999.90;;;;;;;;;;6308137;22;20077;-63
2023/08/27 13:24:53;;;;;;;1131.10;999.90;;;;;;;;;;6307895;22;20019;-63
2023/08/27 13:27:20;;;;;;;1131.85;999.90;;;;;;;;;;6307309;22;20341;-63
2023/08/27 13:29:46;;;;;;;1128.32;999.90;;;;;;;;;;6308013;22;20019;-62
2023/08/27 13:32:13;;;;;;;1125.70;999.90;;;;;;;;;;6307579;22;20041;-63
2023/08/27 13:34:40;;;;;;;1131.03;999.90;;;;;;;;;;6308185;22;20464;-63
2023/08/27 13:37:06;;;;;;;1131.68;999.90;;;;;;;;;;6280229;22;20101;-63
2023/08/27 13:39:33;;;;;;;1123.13;999.90;;;;;;;;;;6307835;22;20007;-63
2023/08/27 13:42:02;;;;;;;1126.28;999.90;;;;;;;;;;6307398;22;20022;-64
2023/08/27 13:44:28;;;;;;;1124.75;999.90;;;;;;;;;;6307687;22;20023;-63
2023/08/27 13:46:55;;;;;;;1138.40;999.90;;;;;;;;;;6307607;22;20049;-63
2023/08/27 13:49:21;;;;;;;1122.65;999.90;;;;;;;;;;6281210;22;20014;-63
2023/08/27 13:51:48;;;;;;;1127.22;999.90;;;;;;;;;;6280282;22;20019;-62
2023/08/27 13:54:15;;;;;;;1129.28;999.90;;;;;;;;;;6280620;22;20022;-62